sensor_id;sensor_type;location;lat;lon;timestamp;temperature;humidity
19974;DHT22;10148;47.694;9.442;2022-10-31T00:01:54;11.40;99.90
19974;DHT22;10148;47.694;9.442;2022-10-31T00:04:19;11.40;99.90
19974;DHT22;10148;47.694;9.442;2022-10-31T00:06:45;11.40;99.90
19974;DHT22;10148;47.694;9.442;2022-10-31T00:09:10;11.40;99.90
19974;DHT22;10148;47.694;9.442;2022-10-31T00:11:36;11.30;99.90
19974;DHT22;10148;47.694;9.442;2022-10-31T00:14:02;11.30;99.90
19974;DHT22;10148;47.694;9.442;2022-10-31T00:16:29;11.40;99.90
19974;DHT22;10148;47.694;9.442;2022-10-31T00:18:57;11.30;99.90
19974;DHT22;10148;47.694;9.442;2022-10-31T00:21:23;11.30;99.90
19974;DHT22;10148;47.694;9.442;2022-10-31T00:23:49;11.30;99.90
19974;DHT22;10148;47.694;9.442;2022-10-31T00:26:15;11.20;99.90
19974;DHT22;10148;47.694;9.442;2022-10-31T00:28:41;11.20;99.90
19974;DHT22;10148;47.694;9.442;2022-10-31T00:31:08;11.20;99.90
19974;DHT22;10148;47.694;9.442;2022-10-31T00:33:35;11.10;99.90
19974;DHT22;10148;47.694;9.442;2022-10-31T00:36:02;11.10;99.90
19974;DHT22;10148;47.694;9.442;2022-10-31T00:38:27;11.10;99.90
19974;DHT22;10148;47.694;9.442;2022-10-31T00:40:53;11.00;99.90
19974;DHT22;10148;47.694;9.442;2022-10-31T00:43:19;11.00;99.90
19974;DHT22;10148;47.694;9.442;2022-10-31T00:45:44;11.00;99.90
19974;DHT22;10148;47.694;9.442;2022-10-31T00:48:10;11.00;99.90
19974;DHT22;10148;47.694;9.442;2022-10-31T00:50:36;11.00;99.90
19974;DHT22;10148;47.694;9.442;2022-10-31T00:53:02;11.00;99.90
19974;DHT22;10148;47.694;9.442;2022-10-31T00:55:28;11.10;99.90
19974;DHT22;10148;47.694;9.442;2022-10-31T00:57:53;11.10;99.90
19974;DHT22;10148;47.694;9.442;2022-10-31T01:00:19;11.00;99.90
19974;DHT22;10148;47.694;9.442;2022-10-31T01:02:44;11.00;99.90
19974;DHT22;10148;47.694;9.442;2022-10-31T01:05:10;11.00;99.90
19974;DHT22;10148;47.694;9.442;2022-10-31T01:07:39;11.00;99.90
19974;DHT22;10148;47.694;9.442;2022-10-31T01:10:06;11.00;99.90
19974;DHT22;10148;47.694;9.442;2022-10-31T01:12:39;10.90;99.90
19974;DHT22;10148;47.694;9.442;2022-10-31T01:15:06;10.90;99.90
19974;DHT22;10148;47.694;9.442;2022-10-31T01:17:31;10.90;99.90
19974;DHT22;10148;47.694;9.442;2022-10-31T01:19:57;10.90;99.90
19974;DHT22;10148;47.694;9.442;2022-10-31T01:22:22;10.80;99.90
19974;DHT22;10148;47.694;9.442;2022-10-31T01:24:48;10.80;99.90
19974;DHT22;10148;47.694;9.442;2022-10-31T01:27:13;10.80;99.90
19974;DHT22;10148;47.694;9.442;2022-10-31T01:29:39;10.80;99.90
19974;DHT22;10148;47.694;9.442;2022-10-31T01:32:05;10.80;99.90
19974;DHT22;10148;47.694;9.442;2022-10-31T01:34:30;10.80;99.90
19974;DHT22;10148;47.694;9.442;2022-10-31T01:36:56;10.80;99.90
19974;DHT22;10148;47.694;9.442;2022-10-31T01:39:21;10.80;99.90
19974;DHT22;10148;47.694;9.442;2022-10-31T01:41:50;10.70;99.90
19974;DHT22;10148;47.694;9.442;2022-10-31T01:46:55;10.70;99.90
19974;DHT22;10148;47.694;9.442;2022-10-31T01:49:27;10.70;99.90
19974;DHT22;10148;47.694;9.442;2022-10-31T01:52:12;10.60;99.90
19974;DHT22;10148;47.694;9.442;2022-10-31T01:54:41;10.60;99.90
19974;DHT22;10148;47.694;9.442;2022-10-31T01:57:10;10.60;99.90
19974;DHT22;10148;47.694;9.442;2022-10-31T01:59:42;10.60;99.90
19974;DHT22;10148;47.694;9.442;2022-10-31T02:02:08;10.60;99.90
19974;DHT22;10148;47.694;9.442;2022-10-31T02:04:34;10.60;99.90
19974;DHT22;10148;47.694;9.442;2022-10-31T02:07:09;10.60;99.90
19974;DHT22;10148;47.694;9.442;2022-10-31T02:09:37;10.60;99.90
19974;DHT22;10148;47.694;9.442;2022-10-31T02:12:02;10.60;99.90
19974;DHT22;10148;47.694;9.442;2022-10-31T02:14:30;10.60;99.90
19974;DHT22;10148;47.694;9.442;2022-10-31T02:16:56;10.70;99.90
19974;DHT22;10148;47.694;9.442;2022-10-31T02:19:51;10.70;99.90
19974;DHT22;10148;47.694;9.442;2022-10-31T02:22:32;10.70;99.90
19974;DHT22;10148;47.694;9.442;2022-10-31T02:30:11;10.60;99.90
19974;DHT22;10148;47.694;9.442;2022-10-31T02:35:36;10.50;99.90
19974;DHT22;10148;47.694;9.442;2022-10-31T02:40:51;10.50;99.90
19974;DHT22;10148;47.694;9.442;2022-10-31T02:46:14;10.50;99.90
19974;DHT22;10148;47.694;9.442;2022-10-31T02:48:45;10.50;99.90
19974;DHT22;10148;47.694;9.442;2022-10-31T02:51:13;10.40;99.90
19974;DHT22;10148;47.694;9.442;2022-10-31T02:53:39;10.40;99.90
19974;DHT22;10148;47.694;9.442;2022-10-31T02:56:16;10.30;99.90
19974;DHT22;10148;47.694;9.442;2022-10-31T02:58:56;10.30;99.90
19974;DHT22;10148;47.694;9.442;2022-10-31T03:09:11;10.10;99.90
19974;DHT22;10148;47.694;9.442;2022-10-31T03:11:50;10.10;99.90
19974;DHT22;10148;47.694;9.442;2022-10-31T03:14:28;10.00;99.90
19974;DHT22;10148;47.694;9.442;2022-10-31T03:16:59;10.00;99.90
19974;DHT22;10148;47.694;9.442;2022-10-31T03:19:43;10.00;99.90
19974;DHT22;10148;47.694;9.442;2022-10-31T03:22:22;10.00;99.90
19974;DHT22;10148;47.694;9.442;2022-10-31T03:24:50;9.90;99.90
19974;DHT22;10148;47.694;9.442;2022-10-31T03:27:21;9.90;99.90
19974;DHT22;10148;47.694;9.442;2022-10-31T03:29:49;9.90;99.90
19974;DHT22;10148;47.694;9.442;2022-10-31T03:32:23;9.90;99.90
19974;DHT22;10148;47.694;9.442;2022-10-31T03:34:53;9.90;99.90
19974;DHT22;10148;47.694;9.442;2022-10-31T03:37:22;9.90;99.90
19974;DHT22;10148;47.694;9.442;2022-10-31T03:39:50;9.90;99.90
19974;DHT22;10148;47.694;9.442;2022-10-31T03:42:23;9.90;99.90
19974;DHT22;10148;47.694;9.442;2022-10-31T03:45:10;10.00;99.90
19974;DHT22;10148;47.694;9.442;2022-10-31T03:47:37;9.90;99.90
19974;DHT22;10148;47.694;9.442;2022-10-31T03:50:05;9.90;99.90
19974;DHT22;10148;47.694;9.442;2022-10-31T03:55:02;9.90;99.90
19974;DHT22;10148;47.694;9.442;2022-10-31T03:57:39;9.90;99.90
19974;DHT22;10148;47.694;9.442;2022-10-31T04:00:11;9.90;99.90
19974;DHT22;10148;47.694;9.442;2022-10-31T04:02:45;9.90;99.90
19974;DHT22;10148;47.694;9.442;2022-10-31T04:05:13;9.90;99.90
19974;DHT22;10148;47.694;9.442;2022-10-31T04:07:43;9.90;99.90
19974;DHT22;10148;47.694;9.442;2022-10-31T04:10:12;9.90;99.90
19974;DHT22;10148;47.694;9.442;2022-10-31T04:12:39;9.80;99.90
19974;DHT22;10148;47.694;9.442;2022-10-31T04:15:06;9.80;99.90
19974;DHT22;10148;47.694;9.442;2022-10-31T04:17:35;9.80;99.90
19974;DHT22;10148;47.694;9.442;2022-10-31T04:20:02;9.70;99.90
19974;DHT22;10148;47.694;9.442;2022-10-31T04:22:28;9.70;99.90
19974;DHT22;10148;47.694;9.442;2022-10-31T04:24:54;9.70;99.90
19974;DHT22;10148;47.694;9.442;2022-10-31T04:27:19;9.70;99.90
19974;DHT22;10148;47.694;9.442;2022-10-31T04:29:45;9.70;99.90
19974;DHT22;10148;47.694;9.442;2022-10-31T04:32:10;9.60;99.90
19974;DHT22;10148;47.694;9.442;2022-10-31T04:34:36;9.60;99.90
19974;DHT22;10148;47.694;9.442;2022-10-31T04:37:01;9.60;99.90
19974;DHT22;10148;47.694;9.442;2022-10-31T04:39:27;9.50;99.90
19974;DHT22;10148;47.694;9.442;2022-10-31T04:41:52;9.50;99.90
19974;DHT22;10148;47.694;9.442;2022-10-31T04:44:18;9.50;99.90
19974;DHT22;10148;47.694;9.442;2022-10-31T04:46:43;9.40;99.90
19974;DHT22;10148;47.694;9.442;2022-10-31T04:49:09;9.40;99.90
19974;DHT22;10148;47.694;9.442;2022-10-31T04:51:34;9.40;99.90
19974;DHT22;10148;47.694;9.442;2022-10-31T04:54:00;9.30;99.90
19974;DHT22;10148;47.694;9.442;2022-10-31T04:56:26;9.40;99.90
19974;DHT22;10148;47.694;9.442;2022-10-31T04:58:52;9.30;99.90
19974;DHT22;10148;47.694;9.442;2022-10-31T05:01:17;9.30;99.90
19974;DHT22;10148;47.694;9.442;2022-10-31T05:03:43;9.30;99.90
19974;DHT22;10148;47.694;9.442;2022-10-31T05:06:09;9.30;99.90
19974;DHT22;10148;47.694;9.442;2022-10-31T05:08:34;9.30;99.90
19974;DHT22;10148;47.694;9.442;2022-10-31T05:11:01;9.30;99.90
19974;DHT22;10148;47.694;9.442;2022-10-31T05:13:27;9.20;99.90
19974;DHT22;10148;47.694;9.442;2022-10-31T05:15:53;9.20;99.90
19974;DHT22;10148;47.694;9.442;2022-10-31T05:18:18;9.10;99.90
19974;DHT22;10148;47.694;9.442;2022-10-31T05:20:44;9.10;99.90
19974;DHT22;10148;47.694;9.442;2022-10-31T05:23:09;9.10;99.90
19974;DHT22;10148;47.694;9.442;2022-10-31T05:25:35;9.20;99.90
19974;DHT22;10148;47.694;9.442;2022-10-31T05:28:00;9.20;99.90
19974;DHT22;10148;47.694;9.442;2022-10-31T05:30:28;9.20;99.90
19974;DHT22;10148;47.694;9.442;2022-10-31T05:32:54;9.20;99.90
19974;DHT22;10148;47.694;9.442;2022-10-31T05:35:29;9.20;99.90
19974;DHT22;10148;47.694;9.442;2022-10-31T05:37:55;9.20;99.90
19974;DHT22;10148;47.694;9.442;2022-10-31T05:40:25;9.20;99.90
19974;DHT22;10148;47.694;9.442;2022-10-31T05:42:52;9.10;99.90
19974;DHT22;10148;47.694;9.442;2022-10-31T05:45:18;9.10;99.90
19974;DHT22;10148;47.694;9.442;2022-10-31T05:47:58;9.10;99.90
19974;DHT22;10148;47.694;9.442;2022-10-31T05:50:26;9.10;99.90
19974;DHT22;10148;47.694;9.442;2022-10-31T05:52:57;9.00;99.90
19974;DHT22;10148;47.694;9.442;2022-10-31T05:55:23;9.00;99.90
19974;DHT22;10148;47.694;9.442;2022-10-31T05:57:49;9.00;99.90
19974;DHT22;10148;47.694;9.442;2022-10-31T06:00:15;9.10;99.90
19974;DHT22;10148;47.694;9.442;2022-10-31T06:02:41;9.10;99.90
19974;DHT22;10148;47.694;9.442;2022-10-31T06:05:06;9.00;99.90
19974;DHT22;10148;47.694;9.442;2022-10-31T06:07:36;9.00;99.90
19974;DHT22;10148;47.694;9.442;2022-10-31T06:10:03;8.90;99.90
19974;DHT22;10148;47.694;9.442;2022-10-31T06:12:29;9.00;99.90
19974;DHT22;10148;47.694;9.442;2022-10-31T06:14:54;9.00;99.90
19974;DHT22;10148;47.694;9.442;2022-10-31T06:17:20;9.00;99.90
19974;DHT22;10148;47.694;9.442;2022-10-31T06:19:46;9.10;99.90
19974;DHT22;10148;47.694;9.442;2022-10-31T06:22:11;9.00;99.90
19974;DHT22;10148;47.694;9.442;2022-10-31T06:24:38;9.00;99.90
19974;DHT22;10148;47.694;9.442;2022-10-31T06:27:04;9.00;99.90
19974;DHT22;10148;47.694;9.442;2022-10-31T06:29:30;9.10;99.90
19974;DHT22;10148;47.694;9.442;2022-10-31T06:31:55;9.20;99.90
19974;DHT22;10148;47.694;9.442;2022-10-31T06:34:21;9.20;99.90
19974;DHT22;10148;47.694;9.442;2022-10-31T06:36:47;9.20;99.90
19974;DHT22;10148;47.694;9.442;2022-10-31T06:39:13;9.20;99.90
19974;DHT22;10148;47.694;9.442;2022-10-31T06:41:38;9.20;99.90
19974;DHT22;10148;47.694;9.442;2022-10-31T06:44:05;9.20;99.90
19974;DHT22;10148;47.694;9.442;2022-10-31T06:46:31;9.20;99.90
19974;DHT22;10148;47.694;9.442;2022-10-31T06:48:57;9.30;99.90
19974;DHT22;10148;47.694;9.442;2022-10-31T06:51:22;9.30;99.90
19974;DHT22;10148;47.694;9.442;2022-10-31T06:53:48;9.40;99.90
19974;DHT22;10148;47.694;9.442;2022-10-31T06:56:13;9.40;99.90
19974;DHT22;10148;47.694;9.442;2022-10-31T06:58:39;9.40;99.90
19974;DHT22;10148;47.694;9.442;2022-10-31T07:01:05;9.40;99.90
19974;DHT22;10148;47.694;9.442;2022-10-31T07:03:30;9.30;99.90
19974;DHT22;10148;47.694;9.442;2022-10-31T07:05:56;9.40;99.90
19974;DHT22;10148;47.694;9.442;2022-10-31T07:08:22;9.40;99.90
19974;DHT22;10148;47.694;9.442;2022-10-31T07:10:53;9.40;99.90
19974;DHT22;10148;47.694;9.442;2022-10-31T07:13:19;9.40;99.90
19974;DHT22;10148;47.694;9.442;2022-10-31T07:15:50;9.40;99.90
19974;DHT22;10148;47.694;9.442;2022-10-31T07:18:15;9.40;99.90
19974;DHT22;10148;47.694;9.442;2022-10-31T07:20:41;9.40;99.90
19974;DHT22;10148;47.694;9.442;2022-10-31T07:23:08;9.40;99.90
19974;DHT22;10148;47.694;9.442;2022-10-31T07:25:34;9.40;99.90
19974;DHT22;10148;47.694;9.442;2022-10-31T07:27:59;9.50;99.90
19974;DHT22;10148;47.694;9.442;2022-10-31T07:30:25;9.50;99.90
19974;DHT22;10148;47.694;9.442;2022-10-31T07:32:51;9.60;99.90
19974;DHT22;10148;47.694;9.442;2022-10-31T07:35:21;9.60;99.90
19974;DHT22;10148;47.694;9.442;2022-10-31T07:37:47;9.60;99.90
19974;DHT22;10148;47.694;9.442;2022-10-31T07:40:13;9.60;99.90
19974;DHT22;10148;47.694;9.442;2022-10-31T07:42:41;9.60;99.90
19974;DHT22;10148;47.694;9.442;2022-10-31T07:45:09;9.60;99.90
19974;DHT22;10148;47.694;9.442;2022-10-31T07:47:39;9.60;99.90
19974;DHT22;10148;47.694;9.442;2022-10-31T07:50:06;9.70;99.90
19974;DHT22;10148;47.694;9.442;2022-10-31T07:52:32;9.70;99.90
19974;DHT22;10148;47.694;9.442;2022-10-31T07:54:57;9.70;99.90
19974;DHT22;10148;47.694;9.442;2022-10-31T07:57:23;9.70;99.90
19974;DHT22;10148;47.694;9.442;2022-10-31T07:59:48;9.70;99.90
19974;DHT22;10148;47.694;9.442;2022-10-31T08:02:14;9.70;99.90
19974;DHT22;10148;47.694;9.442;2022-10-31T08:04:39;9.70;99.90
19974;DHT22;10148;47.694;9.442;2022-10-31T08:07:05;9.70;99.90
19974;DHT22;10148;47.694;9.442;2022-10-31T08:09:30;9.80;99.90
19974;DHT22;10148;47.694;9.442;2022-10-31T08:11:56;9.80;99.90
19974;DHT22;10148;47.694;9.442;2022-10-31T08:14:21;9.80;99.90
19974;DHT22;10148;47.694;9.442;2022-10-31T08:16:47;9.80;99.90
19974;DHT22;10148;47.694;9.442;2022-10-31T08:19:13;9.90;99.90
19974;DHT22;10148;47.694;9.442;2022-10-31T08:21:39;9.90;99.90
19974;DHT22;10148;47.694;9.442;2022-10-31T08:24:05;9.90;99.90
19974;DHT22;10148;47.694;9.442;2022-10-31T08:26:30;9.80;99.90
19974;DHT22;10148;47.694;9.442;2022-10-31T08:28:56;9.80;99.90
19974;DHT22;10148;47.694;9.442;2022-10-31T08:31:22;9.80;99.90
19974;DHT22;10148;47.694;9.442;2022-10-31T08:33:48;9.80;99.90
19974;DHT22;10148;47.694;9.442;2022-10-31T08:36:14;9.90;99.90
19974;DHT22;10148;47.694;9.442;2022-10-31T08:38:39;10.00;99.90
19974;DHT22;10148;47.694;9.442;2022-10-31T08:41:05;10.10;99.90
19974;DHT22;10148;47.694;9.442;2022-10-31T08:43:30;10.20;99.90
19974;DHT22;10148;47.694;9.442;2022-10-31T08:45:56;10.20;99.90
19974;DHT22;10148;47.694;9.442;2022-10-31T08:48:21;10.30;99.90
19974;DHT22;10148;47.694;9.442;2022-10-31T08:50:47;10.30;99.90
19974;DHT22;10148;47.694;9.442;2022-10-31T08:53:17;10.30;99.90
19974;DHT22;10148;47.694;9.442;2022-10-31T08:55:44;10.20;99.90
19974;DHT22;10148;47.694;9.442;2022-10-31T08:58:12;10.30;99.90
19974;DHT22;10148;47.694;9.442;2022-10-31T09:00:39;10.20;99.90
19974;DHT22;10148;47.694;9.442;2022-10-31T09:03:08;10.20;99.90
19974;DHT22;10148;47.694;9.442;2022-10-31T09:05:34;10.30;99.90
19974;DHT22;10148;47.694;9.442;2022-10-31T09:08:01;10.40;99.90
19974;DHT22;10148;47.694;9.442;2022-10-31T09:10:28;10.50;99.90
19974;DHT22;10148;47.694;9.442;2022-10-31T09:13:01;10.60;99.90
19974;DHT22;10148;47.694;9.442;2022-10-31T09:15:28;10.70;99.90
19974;DHT22;10148;47.694;9.442;2022-10-31T09:17:54;10.80;99.90
19974;DHT22;10148;47.694;9.442;2022-10-31T09:20:20;10.80;99.90
19974;DHT22;10148;47.694;9.442;2022-10-31T09:22:46;10.80;99.90
19974;DHT22;10148;47.694;9.442;2022-10-31T09:25:11;10.80;99.90
19974;DHT22;10148;47.694;9.442;2022-10-31T09:27:37;10.80;99.90
19974;DHT22;10148;47.694;9.442;2022-10-31T09:30:03;10.90;99.90
19974;DHT22;10148;47.694;9.442;2022-10-31T09:32:29;10.90;99.90
19974;DHT22;10148;47.694;9.442;2022-10-31T09:34:54;11.00;99.90
19974;DHT22;10148;47.694;9.442;2022-10-31T09:37:20;11.10;99.90
19974;DHT22;10148;47.694;9.442;2022-10-31T09:39:45;11.10;99.90
19974;DHT22;10148;47.694;9.442;2022-10-31T09:42:35;11.00;99.90
19974;DHT22;10148;47.694;9.442;2022-10-31T09:45:22;11.00;99.90
19974;DHT22;10148;47.694;9.442;2022-10-31T09:48:16;11.10;99.90
19974;DHT22;10148;47.694;9.442;2022-10-31T09:50:55;11.30;99.90
19974;DHT22;10148;47.694;9.442;2022-10-31T09:53:39;11.20;99.90
19974;DHT22;10148;47.694;9.442;2022-10-31T09:56:18;11.40;99.90
19974;DHT22;10148;47.694;9.442;2022-10-31T09:58:58;11.40;99.90
19974;DHT22;10148;47.694;9.442;2022-10-31T10:01:30;11.50;99.90
19974;DHT22;10148;47.694;9.442;2022-10-31T10:04:09;11.40;99.90
19974;DHT22;10148;47.694;9.442;2022-10-31T10:06:39;11.40;99.90
19974;DHT22;10148;47.694;9.442;2022-10-31T10:09:08;11.30;99.90
19974;DHT22;10148;47.694;9.442;2022-10-31T10:14:55;11.30;99.90
19974;DHT22;10148;47.694;9.442;2022-10-31T10:17:19;11.30;99.90
19974;DHT22;10148;47.694;9.442;2022-10-31T10:19:56;11.20;99.90
19974;DHT22;10148;47.694;9.442;2022-10-31T10:25:12;11.30;99.90
19974;DHT22;10148;47.694;9.442;2022-10-31T10:30:42;11.30;99.90
19974;DHT22;10148;47.694;9.442;2022-10-31T10:33:14;11.40;99.90
19974;DHT22;10148;47.694;9.442;2022-10-31T10:35:52;11.50;99.90
19974;DHT22;10148;47.694;9.442;2022-10-31T10:38:27;11.50;99.90
19974;DHT22;10148;47.694;9.442;2022-10-31T10:40:54;11.50;99.90
19974;DHT22;10148;47.694;9.442;2022-10-31T10:43:37;11.70;99.90
19974;DHT22;10148;47.694;9.442;2022-10-31T10:51:23;11.80;99.90
19974;DHT22;10148;47.694;9.442;2022-10-31T10:54:33;11.80;99.90
19974;DHT22;10148;47.694;9.442;2022-10-31T10:59:52;11.70;99.90
19974;DHT22;10148;47.694;9.442;2022-10-31T11:02:19;11.80;99.90
19974;DHT22;10148;47.694;9.442;2022-10-31T11:04:47;11.80;99.90
19974;DHT22;10148;47.694;9.442;2022-10-31T11:07:14;12.00;99.90
19974;DHT22;10148;47.694;9.442;2022-10-31T11:09:40;12.10;99.90
19974;DHT22;10148;47.694;9.442;2022-10-31T11:14:42;12.30;99.90
19974;DHT22;10148;47.694;9.442;2022-10-31T11:17:39;12.40;99.90
19974;DHT22;10148;47.694;9.442;2022-10-31T11:22:42;12.40;99.90
19974;DHT22;10148;47.694;9.442;2022-10-31T11:25:34;12.50;99.90
19974;DHT22;10148;47.694;9.442;2022-10-31T11:28:09;12.50;99.90
19974;DHT22;10148;47.694;9.442;2022-10-31T11:30:58;12.50;99.90
19974;DHT22;10148;47.694;9.442;2022-10-31T11:35:53;12.50;99.90
19974;DHT22;10148;47.694;9.442;2022-10-31T11:38:22;12.60;99.90
19974;DHT22;10148;47.694;9.442;2022-10-31T11:40:53;12.50;99.90
19974;DHT22;10148;47.694;9.442;2022-10-31T11:43:19;12.50;99.90
19974;DHT22;10148;47.694;9.442;2022-10-31T11:45:45;12.60;99.90
19974;DHT22;10148;47.694;9.442;2022-10-31T11:48:21;12.50;99.90
19974;DHT22;10148;47.694;9.442;2022-10-31T11:50:57;12.50;99.90
19974;DHT22;10148;47.694;9.442;2022-10-31T11:53:32;12.50;99.90
19974;DHT22;10148;47.694;9.442;2022-10-31T11:56:12;12.50;99.90
19974;DHT22;10148;47.694;9.442;2022-10-31T11:58:38;12.50;99.90
19974;DHT22;10148;47.694;9.442;2022-10-31T12:01:04;12.40;99.90
19974;DHT22;10148;47.694;9.442;2022-10-31T12:03:38;12.40;99.90
19974;DHT22;10148;47.694;9.442;2022-10-31T12:08:40;12.50;99.90
19974;DHT22;10148;47.694;9.442;2022-10-31T12:11:56;12.50;99.90
19974;DHT22;10148;47.694;9.442;2022-10-31T12:14:05;12.50;99.90
19974;DHT22;10148;47.694;9.442;2022-10-31T12:16:42;12.50;99.90
19974;DHT22;10148;47.694;9.442;2022-10-31T12:33:21;12.70;99.90
19974;DHT22;10148;47.694;9.442;2022-10-31T12:39:02;12.90;99.90
19974;DHT22;10148;47.694;9.442;2022-10-31T12:44:40;13.10;99.90
19974;DHT22;10148;47.694;9.442;2022-10-31T12:47:34;13.10;99.90
19974;DHT22;10148;47.694;9.442;2022-10-31T12:50:16;13.20;99.90
19974;DHT22;10148;47.694;9.442;2022-10-31T12:58:29;13.20;99.90
19974;DHT22;10148;47.694;9.442;2022-10-31T13:06:34;13.70;99.90
19974;DHT22;10148;47.694;9.442;2022-10-31T13:09:05;14.10;99.90
19974;DHT22;10148;47.694;9.442;2022-10-31T13:11:48;14.10;99.90
19974;DHT22;10148;47.694;9.442;2022-10-31T13:14:35;14.10;99.90
19974;DHT22;10148;47.694;9.442;2022-10-31T13:17:02;14.00;99.90
19974;DHT22;10148;47.694;9.442;2022-10-31T13:19:33;13.90;99.90
19974;DHT22;10148;47.694;9.442;2022-10-31T13:22:26;13.90;99.90
19974;DHT22;10148;47.694;9.442;2022-10-31T13:30:14;14.40;99.90
19974;DHT22;10148;47.694;9.442;2022-10-31T13:38:04;16.60;99.90
19974;DHT22;10148;47.694;9.442;2022-10-31T13:40:54;18.60;99.90
19974;DHT22;10148;47.694;9.442;2022-10-31T13:48:57;21.10;99.90
19974;DHT22;10148;47.694;9.442;2022-10-31T13:51:27;21.10;99.90
19974;DHT22;10148;47.694;9.442;2022-10-31T14:01:23;21.40;99.90
19974;DHT22;10148;47.694;9.442;2022-10-31T14:04:07;21.10;99.90
19974;DHT22;10148;47.694;9.442;2022-10-31T14:06:55;21.20;99.90
19974;DHT22;10148;47.694;9.442;2022-10-31T14:09:38;20.60;99.90
19974;DHT22;10148;47.694;9.442;2022-10-31T14:12:12;20.70;99.90
19974;DHT22;10148;47.694;9.442;2022-10-31T14:14:45;21.00;99.90
19974;DHT22;10148;47.694;9.442;2022-10-31T14:17:20;20.70;99.90
19974;DHT22;10148;47.694;9.442;2022-10-31T14:20:00;20.50;99.90
19974;DHT22;10148;47.694;9.442;2022-10-31T14:22:33;20.20;99.90
19974;DHT22;10148;47.694;9.442;2022-10-31T14:24:59;19.90;99.90
19974;DHT22;10148;47.694;9.442;2022-10-31T14:29:50;19.90;99.90
19974;DHT22;10148;47.694;9.442;2022-10-31T14:32:26;20.40;99.90
19974;DHT22;10148;47.694;9.442;2022-10-31T14:34:53;20.70;99.90
19974;DHT22;10148;47.694;9.442;2022-10-31T14:53:02;17.50;99.90
19974;DHT22;10148;47.694;9.442;2022-10-31T14:55:29;17.10;99.90
19974;DHT22;10148;47.694;9.442;2022-10-31T14:58:04;16.90;99.90
19974;DHT22;10148;47.694;9.442;2022-10-31T15:00:32;16.90;99.90
19974;DHT22;10148;47.694;9.442;2022-10-31T15:03:13;16.80;99.90
19974;DHT22;10148;47.694;9.442;2022-10-31T15:05:48;16.50;99.90
19974;DHT22;10148;47.694;9.442;2022-10-31T15:08:41;16.50;99.90
19974;DHT22;10148;47.694;9.442;2022-10-31T15:11:20;15.90;99.90
19974;DHT22;10148;47.694;9.442;2022-10-31T15:13:53;15.80;99.90
19974;DHT22;10148;47.694;9.442;2022-10-31T15:16:22;15.60;99.90
19974;DHT22;10148;47.694;9.442;2022-10-31T15:19:00;15.50;99.90
19974;DHT22;10148;47.694;9.442;2022-10-31T15:21:28;15.20;99.90
19974;DHT22;10148;47.694;9.442;2022-10-31T15:23:58;15.00;99.90
19974;DHT22;10148;47.694;9.442;2022-10-31T15:26:39;15.00;99.90
19974;DHT22;10148;47.694;9.442;2022-10-31T15:29:16;14.80;99.90
19974;DHT22;10148;47.694;9.442;2022-10-31T15:31:57;14.80;99.90
19974;DHT22;10148;47.694;9.442;2022-10-31T15:34:38;14.50;99.90
19974;DHT22;10148;47.694;9.442;2022-10-31T15:37:07;14.40;99.90
19974;DHT22;10148;47.694;9.442;2022-10-31T15:39:34;14.20;99.90
19974;DHT22;10148;47.694;9.442;2022-10-31T15:42:00;14.00;99.90
19974;DHT22;10148;47.694;9.442;2022-10-31T15:44:35;13.80;99.90
19974;DHT22;10148;47.694;9.442;2022-10-31T15:47:04;13.60;99.90
19974;DHT22;10148;47.694;9.442;2022-10-31T15:49:42;13.40;99.90
19974;DHT22;10148;47.694;9.442;2022-10-31T15:54:47;12.90;99.90
19974;DHT22;10148;47.694;9.442;2022-10-31T15:57:13;12.80;99.90
19974;DHT22;10148;47.694;9.442;2022-10-31T15:59:41;12.80;99.90
19974;DHT22;10148;47.694;9.442;2022-10-31T16:02:11;12.60;99.90
19974;DHT22;10148;47.694;9.442;2022-10-31T16:04:52;12.40;99.90
19974;DHT22;10148;47.694;9.442;2022-10-31T16:07:19;12.40;99.90
19974;DHT22;10148;47.694;9.442;2022-10-31T16:10:02;12.30;99.90
19974;DHT22;10148;47.694;9.442;2022-10-31T16:12:36;12.20;99.90
19974;DHT22;10148;47.694;9.442;2022-10-31T16:15:04;12.20;99.90
19974;DHT22;10148;47.694;9.442;2022-10-31T16:17:30;12.10;99.90
19974;DHT22;10148;47.694;9.442;2022-10-31T16:20:02;12.10;99.90
19974;DHT22;10148;47.694;9.442;2022-10-31T16:22:31;12.10;99.90
19974;DHT22;10148;47.694;9.442;2022-10-31T16:25:14;12.00;99.90
19974;DHT22;10148;47.694;9.442;2022-10-31T16:27:46;12.00;99.90
19974;DHT22;10148;47.694;9.442;2022-10-31T16:33:00;11.90;99.90
19974;DHT22;10148;47.694;9.442;2022-10-31T16:35:38;11.90;99.90
19974;DHT22;10148;47.694;9.442;2022-10-31T16:38:05;12.00;99.90
19974;DHT22;10148;47.694;9.442;2022-10-31T16:40:31;11.90;99.90
19974;DHT22;10148;47.694;9.442;2022-10-31T16:42:58;11.90;99.90
19974;DHT22;10148;47.694;9.442;2022-10-31T16:45:26;11.90;99.90
19974;DHT22;10148;47.694;9.442;2022-10-31T16:47:52;11.80;99.90
19974;DHT22;10148;47.694;9.442;2022-10-31T16:50:23;11.80;99.90
19974;DHT22;10148;47.694;9.442;2022-10-31T16:52:49;11.80;99.90
19974;DHT22;10148;47.694;9.442;2022-10-31T16:55:16;11.70;99.90
19974;DHT22;10148;47.694;9.442;2022-10-31T16:57:45;11.70;99.90
19974;DHT22;10148;47.694;9.442;2022-10-31T17:00:17;11.70;99.90
19974;DHT22;10148;47.694;9.442;2022-10-31T17:02:44;11.80;99.90
19974;DHT22;10148;47.694;9.442;2022-10-31T17:05:12;11.80;99.90
19974;DHT22;10148;47.694;9.442;2022-10-31T17:07:38;11.80;99.90
19974;DHT22;10148;47.694;9.442;2022-10-31T17:10:05;11.70;99.90
19974;DHT22;10148;47.694;9.442;2022-10-31T17:12:30;11.70;99.90
19974;DHT22;10148;47.694;9.442;2022-10-31T17:14:56;11.70;99.90
19974;DHT22;10148;47.694;9.442;2022-10-31T17:17:22;11.80;99.90
19974;DHT22;10148;47.694;9.442;2022-10-31T17:19:47;11.80;99.90
19974;DHT22;10148;47.694;9.442;2022-10-31T17:22:14;11.70;99.90
19974;DHT22;10148;47.694;9.442;2022-10-31T17:24:40;11.50;99.90
19974;DHT22;10148;47.694;9.442;2022-10-31T17:27:05;11.50;99.90
19974;DHT22;10148;47.694;9.442;2022-10-31T17:29:31;11.60;99.90
19974;DHT22;10148;47.694;9.442;2022-10-31T17:31:57;11.60;99.90
19974;DHT22;10148;47.694;9.442;2022-10-31T17:34:24;11.60;99.90
19974;DHT22;10148;47.694;9.442;2022-10-31T17:36:51;11.60;99.90
19974;DHT22;10148;47.694;9.442;2022-10-31T17:39:17;11.60;99.90
19974;DHT22;10148;47.694;9.442;2022-10-31T17:41:43;11.60;99.90
19974;DHT22;10148;47.694;9.442;2022-10-31T17:44:11;11.60;99.90
19974;DHT22;10148;47.694;9.442;2022-10-31T17:46:37;11.60;99.90
19974;DHT22;10148;47.694;9.442;2022-10-31T17:49:03;11.60;99.90
19974;DHT22;10148;47.694;9.442;2022-10-31T17:51:31;11.60;99.90
19974;DHT22;10148;47.694;9.442;2022-10-31T17:53:57;11.60;99.90
19974;DHT22;10148;47.694;9.442;2022-10-31T17:56:23;11.50;99.90
19974;DHT22;10148;47.694;9.442;2022-10-31T17:58:49;11.50;99.90
19974;DHT22;10148;47.694;9.442;2022-10-31T18:01:16;11.50;99.90
19974;DHT22;10148;47.694;9.442;2022-10-31T18:03:42;11.50;99.90